createdAt,value
2019-01-02T00:00:30.279Z,1021.70
2019-01-02T00:01:05.506Z,1021.71
2019-01-02T00:01:40.817Z,1021.71
2019-01-02T00:02:16.382Z,1021.73
2019-01-02T00:02:51.706Z,1021.71
2019-01-02T00:03:27.108Z,1021.71
2019-01-02T00:04:02.523Z,1021.67
2019-01-02T00:04:37.809Z,1021.73
2019-01-02T00:05:13.208Z,1021.81
2019-01-02T00:05:48.319Z,1021.79
2019-01-02T00:06:24.017Z,1021.84
2019-01-02T00:06:59.475Z,1021.74
2019-01-02T00:07:34.770Z,1021.74
2019-01-02T00:08:10.010Z,1021.79
2019-01-02T00:08:45.313Z,1021.72
2019-01-02T00:09:20.523Z,1021.77
2019-01-02T00:09:56.144Z,1021.73
2019-01-02T00:10:31.438Z,1021.81
2019-01-02T00:11:06.951Z,1021.70
2019-01-02T00:11:42.499Z,1021.78
2019-01-02T00:12:17.971Z,1021.79
2019-01-02T00:12:53.490Z,1021.82
2019-01-02T00:13:28.688Z,1021.78
2019-01-02T00:14:04.027Z,1021.86
2019-01-02T00:14:39.434Z,1021.75
2019-01-02T00:15:14.656Z,1021.85
2019-01-02T00:15:50.084Z,1021.94
2019-01-02T00:16:25.071Z,1021.90
2019-01-02T00:17:00.718Z,1021.82
2019-01-02T00:17:36.314Z,1021.94
2019-01-02T00:18:11.735Z,1021.84
2019-01-02T00:18:47.053Z,1021.96
2019-01-02T00:19:22.259Z,1021.88
2019-01-02T00:19:57.663Z,1021.88
2019-01-02T00:20:32.956Z,1021.89
2019-01-02T00:21:08.577Z,1021.93
2019-01-02T00:21:44.186Z,1021.92
2019-01-02T00:22:19.806Z,1021.91
2019-01-02T00:22:55.464Z,1021.91
2019-01-02T00:23:31.155Z,1021.94
2019-01-02T00:24:06.760Z,1021.96
2019-01-02T00:24:42.057Z,1021.96
2019-01-02T00:25:17.386Z,1022.00
2019-01-02T00:25:53.004Z,1021.97
2019-01-02T00:26:28.301Z,1021.95
2019-01-02T00:27:03.426Z,1021.91
2019-01-02T00:27:38.656Z,1021.95
2019-01-02T00:28:14.260Z,1021.94
2019-01-02T00:28:49.774Z,1021.98
2019-01-02T00:29:25.213Z,1021.99
2019-01-02T00:30:00.333Z,1021.97
2019-01-02T00:30:35.543Z,1022.00
2019-01-02T00:31:11.066Z,1021.97
2019-01-02T00:31:46.260Z,1021.98
2019-01-02T00:32:21.610Z,1022.01
2019-01-02T00:32:56.870Z,1021.98
2019-01-02T00:33:32.182Z,1022.03
2019-01-02T00:34:07.410Z,1021.98
2019-01-02T00:34:42.695Z,1022.12
2019-01-02T00:35:18.203Z,1022.05
2019-01-02T00:35:53.496Z,1022.15
2019-01-02T00:36:28.748Z,1022.13
2019-01-02T00:37:04.308Z,1022.10
2019-01-02T00:37:39.897Z,1022.06
2019-01-02T00:38:15.306Z,1022.09
2019-01-02T00:38:50.607Z,1022.07
2019-01-02T00:39:26.239Z,1022.03
2019-01-02T00:40:01.563Z,1022.08
2019-01-02T00:40:37.078Z,1021.99
2019-01-02T00:41:12.401Z,1021.95
2019-01-02T00:41:47.695Z,1022.04
2019-01-02T00:42:23.042Z,1021.98
2019-01-02T00:42:58.772Z,1022.03
2019-01-02T00:43:34.160Z,1021.98
2019-01-02T00:44:09.770Z,1021.99
2019-01-02T00:44:44.966Z,1022.06
2019-01-02T00:45:22.383Z,1022.12
2019-01-02T00:45:55.692Z,1022.08
2019-01-02T00:46:30.969Z,1022.03
2019-01-02T00:47:06.235Z,1022.05
2019-01-02T00:47:41.652Z,1022.10
2019-01-02T00:48:16.798Z,1021.95
2019-01-02T00:48:52.087Z,1021.98
2019-01-02T00:49:27.411Z,1022.00
2019-01-02T00:50:02.813Z,1021.98
2019-01-02T00:50:37.906Z,1021.97
2019-01-02T00:51:13.324Z,1021.93
2019-01-02T00:51:48.510Z,1021.87
2019-01-02T00:52:23.953Z,1021.94
2019-01-02T00:52:59.164Z,1021.96
2019-01-02T00:53:34.452Z,1021.94
2019-01-02T00:54:09.773Z,1021.93
2019-01-02T00:54:45.061Z,1021.91
2019-01-02T00:55:20.383Z,1021.94
2019-01-02T00:55:55.698Z,1022.00
2019-01-02T00:56:31.090Z,1021.96
2019-01-02T00:57:06.341Z,1021.96
2019-01-02T00:57:41.519Z,1022.02
2019-01-02T00:58:16.837Z,1022.01
2019-01-02T00:58:52.345Z,1022.00
2019-01-02T00:59:27.576Z,1021.97
2019-01-02T01:00:03.301Z,1021.94
2019-01-02T01:00:38.685Z,1022.03
2019-01-02T01:01:13.905Z,1021.98
2019-01-02T01:01:49.599Z,1022.02
2019-01-02T01:02:25.059Z,1022.05
2019-01-02T01:03:00.270Z,1022.03
2019-01-02T01:03:35.307Z,1022.05
2019-01-02T01:04:10.538Z,1022.05
2019-01-02T01:04:45.957Z,1022.10
2019-01-02T01:05:21.529Z,1022.02
2019-01-02T01:05:56.942Z,1022.06
2019-01-02T01:06:32.443Z,1022.06
2019-01-02T01:07:07.796Z,1022.12
2019-01-02T01:07:43.038Z,1022.11
2019-01-02T01:08:18.245Z,1022.14
2019-01-02T01:08:53.559Z,1022.07
2019-01-02T01:09:28.964Z,1022.05
2019-01-02T01:10:04.276Z,1022.10
2019-01-02T01:10:39.664Z,1022.08
2019-01-02T01:11:14.786Z,1022.11
2019-01-02T01:11:50.080Z,1022.09
2019-01-02T01:12:25.421Z,1022.13
2019-01-02T01:13:00.712Z,1022.12
2019-01-02T01:13:36.016Z,1022.05
2019-01-02T01:14:11.531Z,1022.06
2019-01-02T01:14:46.931Z,1022.22
2019-01-02T01:15:21.956Z,1022.15
2019-01-02T01:15:57.437Z,1022.13
2019-01-02T01:16:32.958Z,1022.08
2019-01-02T01:17:08.297Z,1022.13
2019-01-02T01:17:43.587Z,1022.18
2019-01-02T01:18:19.000Z,1022.15
2019-01-02T01:18:54.437Z,1022.21
2019-01-02T01:19:29.541Z,1022.21
2019-01-02T01:20:04.865Z,1022.24
2019-01-02T01:20:40.050Z,1022.16
2019-01-02T01:21:15.270Z,1022.13
2019-01-02T01:21:50.658Z,1022.16
2019-01-02T01:22:25.802Z,1022.17
2019-01-02T01:23:01.089Z,1022.27
2019-01-02T01:23:36.895Z,1022.29
2019-01-02T01:24:12.121Z,1022.34
2019-01-02T01:24:47.424Z,1022.30
2019-01-02T01:25:22.717Z,1022.32
2019-01-02T01:25:58.008Z,1022.41
2019-01-02T01:26:33.215Z,1022.37
2019-01-02T01:27:08.548Z,1022.38
2019-01-02T01:27:43.741Z,1022.38
2019-01-02T01:28:19.083Z,1022.40
2019-01-02T01:28:54.470Z,1022.42
2019-01-02T01:29:30.088Z,1022.39
2019-01-02T01:30:05.501Z,1022.41
2019-01-02T01:30:40.786Z,1022.47
2019-01-02T01:31:16.303Z,1022.50
2019-01-02T01:31:51.476Z,1022.51
2019-01-02T01:32:26.519Z,1022.48
2019-01-02T01:33:01.848Z,1022.53
2019-01-02T01:33:37.360Z,1022.56
2019-01-02T01:34:12.971Z,1022.50
2019-01-02T01:34:48.381Z,1022.49
2019-01-02T01:35:23.507Z,1022.50
2019-01-02T01:35:58.788Z,1022.51
2019-01-02T01:36:34.203Z,1022.52
2019-01-02T01:37:10.193Z,1022.54
2019-01-02T01:37:45.556Z,1022.49
2019-01-02T01:38:21.069Z,1022.51
2019-01-02T01:38:56.350Z,1022.44
2019-01-02T01:39:31.585Z,1022.49
2019-01-02T01:40:06.996Z,1022.49
2019-01-02T01:40:42.388Z,1022.49
2019-01-02T01:41:18.128Z,1022.49
2019-01-02T01:41:53.713Z,1022.51
2019-01-02T01:42:29.023Z,1022.50
2019-01-02T01:43:04.364Z,1022.58
2019-01-02T01:43:39.751Z,1022.57
2019-01-02T01:44:14.852Z,1022.57
2019-01-02T01:44:49.938Z,1022.58
2019-01-02T01:45:25.461Z,1022.61
2019-01-02T01:46:00.857Z,1022.65
2019-01-02T01:46:36.482Z,1022.62
2019-01-02T01:47:11.801Z,1022.62
2019-01-02T01:47:46.896Z,1022.64
2019-01-02T01:48:22.439Z,1022.72
2019-01-02T01:48:57.835Z,1022.70
2019-01-02T01:49:33.158Z,1022.67
2019-01-02T01:50:08.281Z,1022.69
2019-01-02T01:50:43.560Z,1022.67
2019-01-02T01:51:19.106Z,1022.70
2019-01-02T01:51:54.391Z,1022.74
2019-01-02T01:52:29.590Z,1022.76
2019-01-02T01:53:04.927Z,1022.69
2019-01-02T01:53:40.426Z,1022.74
2019-01-02T01:54:16.045Z,1022.77
2019-01-02T01:54:51.426Z,1022.80
2019-01-02T01:55:26.750Z,1022.76
2019-01-02T01:56:02.155Z,1022.71
2019-01-02T01:56:37.575Z,1022.73
2019-01-02T01:57:12.919Z,1022.68
2019-01-02T01:57:48.434Z,1022.85
2019-01-02T01:58:23.653Z,1022.72
2019-01-02T01:58:59.059Z,1022.72
2019-01-02T01:59:34.270Z,1022.75
2019-01-02T02:00:09.685Z,1022.85
2019-01-02T02:00:45.092Z,1022.65
2019-01-02T02:01:20.331Z,1022.71
2019-01-02T02:01:55.737Z,1022.68
2019-01-02T02:02:31.083Z,1022.63
2019-01-02T02:03:06.493Z,1022.67
2019-01-02T02:03:42.090Z,1022.65
2019-01-02T02:04:17.326Z,1022.64
2019-01-02T02:04:52.820Z,1022.64
2019-01-02T02:05:28.245Z,1022.64
2019-01-02T02:06:03.575Z,1022.67
2019-01-02T02:06:38.763Z,1022.66
2019-01-02T02:07:14.071Z,1022.62
2019-01-02T02:07:49.297Z,1022.63
2019-01-02T02:08:24.703Z,1022.61
2019-01-02T02:08:59.999Z,1022.59
2019-01-02T02:09:35.154Z,1022.59
2019-01-02T02:10:10.359Z,1022.61
2019-01-02T02:10:45.747Z,1022.61
2019-01-02T02:11:21.375Z,1022.61
2019-01-02T02:11:56.558Z,1022.59
2019-01-02T02:12:31.715Z,1022.64
2019-01-02T02:13:07.236Z,1022.62
2019-01-02T02:13:42.220Z,1022.61
2019-01-02T02:14:17.721Z,1022.60
2019-01-02T02:14:52.837Z,1022.56
2019-01-02T02:15:28.071Z,1022.57
2019-01-02T02:16:03.657Z,1022.58
2019-01-02T02:16:38.874Z,1022.60
2019-01-02T02:17:14.207Z,1022.52
2019-01-02T02:17:49.726Z,1022.55
2019-01-02T02:18:25.052Z,1022.58
2019-01-02T02:19:00.355Z,1022.62
2019-01-02T02:19:35.975Z,1022.57
2019-01-02T02:20:11.288Z,1022.66
2019-01-02T02:20:46.885Z,1022.54
2019-01-02T02:21:22.096Z,1022.71
2019-01-02T02:21:57.291Z,1022.71
2019-01-02T02:22:32.743Z,1022.75
2019-01-02T02:23:07.768Z,1022.68
2019-01-02T02:23:43.295Z,1022.70
2019-01-02T02:24:18.585Z,1022.74
2019-01-02T02:24:53.771Z,1022.81
2019-01-02T02:25:29.082Z,1022.83
2019-01-02T02:26:04.404Z,1022.75
2019-01-02T02:26:39.713Z,1022.73
2019-01-02T02:27:15.092Z,1022.74
2019-01-02T02:27:50.282Z,1022.83
2019-01-02T02:28:25.484Z,1022.87
2019-01-02T02:29:00.691Z,1022.77
2019-01-02T02:29:35.895Z,1022.75
2019-01-02T02:30:11.617Z,1022.84
2019-01-02T02:30:47.310Z,1022.83
2019-01-02T02:31:22.422Z,1022.81
2019-01-02T02:31:57.921Z,1022.85
2019-01-02T02:32:33.271Z,1022.86
2019-01-02T02:33:08.583Z,1022.87
2019-01-02T02:33:44.109Z,1022.89
2019-01-02T02:34:19.431Z,1022.92
2019-01-02T02:34:54.848Z,1022.97
2019-01-02T02:35:30.269Z,1022.92
2019-01-02T02:36:05.482Z,1023.01
2019-01-02T02:36:40.774Z,1022.96
2019-01-02T02:37:15.902Z,1023.03
2019-01-02T02:37:51.394Z,1022.97
2019-01-02T02:38:26.701Z,1023.02
2019-01-02T02:39:01.989Z,1022.99
2019-01-02T02:39:37.304Z,1023.01
2019-01-02T02:40:12.730Z,1022.96
2019-01-02T02:40:48.018Z,1022.97
2019-01-02T02:41:23.433Z,1023.01
2019-01-02T02:41:58.833Z,1023.01
2019-01-02T02:42:34.248Z,1023.03
2019-01-02T02:43:09.153Z,1023.04
2019-01-02T02:43:44.247Z,1023.04
2019-01-02T02:44:19.560Z,1023.03
2019-01-02T02:44:54.843Z,1023.00
2019-01-02T02:45:30.269Z,1023.04
2019-01-02T02:46:05.591Z,1022.99
2019-01-02T02:46:40.984Z,1023.00
2019-01-02T02:47:17.311Z,1022.98
2019-01-02T02:47:52.702Z,1022.94
2019-01-02T02:48:27.823Z,1022.98
2019-01-02T02:49:02.933Z,1022.96
2019-01-02T02:49:38.351Z,1022.94
2019-01-02T02:50:13.782Z,1022.96
2019-01-02T02:50:48.979Z,1022.94
2019-01-02T02:51:24.314Z,1022.95
2019-01-02T02:51:59.432Z,1022.94
2019-01-02T02:52:34.762Z,1022.99
2019-01-02T02:53:10.201Z,1022.96
2019-01-02T02:53:45.796Z,1022.96
2019-01-02T02:54:21.012Z,1022.97
2019-01-02T02:54:56.526Z,1022.97
2019-01-02T02:55:31.847Z,1022.98
2019-01-02T02:56:07.278Z,1022.99
2019-01-02T02:56:42.463Z,1022.93
2019-01-02T02:57:17.978Z,1022.95
2019-01-02T02:57:53.672Z,1022.96
2019-01-02T02:58:29.267Z,1022.91
2019-01-02T02:59:04.613Z,1022.95
2019-01-02T02:59:39.813Z,1022.88
2019-01-02T03:00:15.115Z,1022.87
2019-01-02T03:00:50.398Z,1022.87
2019-01-02T03:01:26.006Z,1022.94
2019-01-02T03:02:01.631Z,1022.94
2019-01-02T03:02:36.747Z,1022.94
2019-01-02T03:03:12.180Z,1022.96
2019-01-02T03:03:47.382Z,1022.95
2019-01-02T03:04:22.691Z,1022.98
2019-01-02T03:04:58.080Z,1022.96
2019-01-02T03:05:33.699Z,1022.98
2019-01-02T03:06:09.119Z,1023.02
2019-01-02T03:06:45.530Z,1023.01
2019-01-02T03:07:19.868Z,1022.89
2019-01-02T03:07:55.157Z,1022.95
2019-01-02T03:08:30.656Z,1022.99
2019-01-02T03:09:06.064Z,1022.98
2019-01-02T03:09:41.253Z,1022.98
2019-01-02T03:10:16.572Z,1022.94
2019-01-02T03:10:51.962Z,1022.98
2019-01-02T03:11:27.174Z,1022.99
2019-01-02T03:12:02.514Z,1023.01
2019-01-02T03:12:37.636Z,1022.96
2019-01-02T03:13:12.939Z,1022.98
2019-01-02T03:13:48.439Z,1022.96
2019-01-02T03:14:23.646Z,1023.03
2019-01-02T03:14:59.142Z,1023.03
2019-01-02T03:15:34.666Z,1023.03
2019-01-02T03:16:09.996Z,1022.99
2019-01-02T03:16:45.842Z,1023.03
2019-01-02T03:17:21.329Z,1023.06
2019-01-02T03:17:56.511Z,1023.00
2019-01-02T03:18:31.726Z,1023.01
2019-01-02T03:19:07.038Z,1023.02
2019-01-02T03:19:42.530Z,1022.99
2019-01-02T03:20:17.631Z,1023.02
2019-01-02T03:20:52.713Z,1023.00
2019-01-02T03:21:28.269Z,1023.03
2019-01-02T03:22:03.555Z,1023.04
2019-01-02T03:22:38.677Z,1023.03
2019-01-02T03:23:14.186Z,1023.07
2019-01-02T03:23:49.523Z,1023.10
2019-01-02T03:24:25.032Z,1023.10
2019-01-02T03:25:00.429Z,1023.07
2019-01-02T03:25:35.838Z,1023.10
2019-01-02T03:26:11.261Z,1023.16
2019-01-02T03:26:46.485Z,1023.18
2019-01-02T03:27:21.591Z,1023.10
2019-01-02T03:27:56.967Z,1023.15
2019-01-02T03:28:32.276Z,1023.18
2019-01-02T03:29:07.491Z,1023.14
2019-01-02T03:29:42.974Z,1023.20
2019-01-02T03:30:18.413Z,1023.11
2019-01-02T03:30:53.702Z,1023.14
2019-01-02T03:31:28.824Z,1023.21
2019-01-02T03:32:04.057Z,1023.22
2019-01-02T03:32:39.349Z,1023.17
2019-01-02T03:33:14.977Z,1023.23
2019-01-02T03:33:49.942Z,1023.17
2019-01-02T03:34:25.566Z,1023.16
2019-01-02T03:35:01.082Z,1023.21
2019-01-02T03:35:36.482Z,1023.27
2019-01-02T03:36:11.605Z,1023.26
2019-01-02T03:36:46.870Z,1023.25
2019-01-02T03:37:22.378Z,1023.29
2019-01-02T03:37:57.851Z,1023.29
2019-01-02T03:38:33.069Z,1023.32
2019-01-02T03:39:08.772Z,1023.33
2019-01-02T03:39:44.069Z,1023.26
2019-01-02T03:40:19.364Z,1023.24
2019-01-02T03:40:54.759Z,1023.32
2019-01-02T03:41:30.193Z,1023.35
2019-01-02T03:42:05.894Z,1023.34
2019-01-02T03:42:41.169Z,1023.34
2019-01-02T03:43:16.426Z,1023.32
2019-01-02T03:43:51.625Z,1023.32
2019-01-02T03:44:27.055Z,1023.31
2019-01-02T03:45:02.632Z,1023.24
2019-01-02T03:45:37.941Z,1023.29
2019-01-02T03:46:13.369Z,1023.17
2019-01-02T03:46:48.680Z,1023.23
2019-01-02T03:47:24.188Z,1023.20
2019-01-02T03:47:59.674Z,1023.22
2019-01-02T03:48:34.999Z,1023.21
2019-01-02T03:49:10.343Z,1023.17
2019-01-02T03:49:45.733Z,1023.13
2019-01-02T03:50:21.149Z,1023.23
2019-01-02T03:50:56.666Z,1023.23
2019-01-02T03:51:32.290Z,1023.31
2019-01-02T03:52:07.782Z,1023.33
2019-01-02T03:52:43.076Z,1023.38
2019-01-02T03:53:18.391Z,1023.34
2019-01-02T03:53:53.680Z,1023.31
2019-01-02T03:54:29.274Z,1023.41
2019-01-02T03:55:04.492Z,1023.30
2019-01-02T03:55:39.982Z,1023.43
2019-01-02T03:56:18.517Z,1023.34
2019-01-02T03:56:53.917Z,1023.41
2019-01-02T03:57:28.936Z,1023.44
2019-01-02T03:58:03.943Z,1023.46
2019-01-02T03:58:39.131Z,1023.48
2019-01-02T03:59:14.549Z,1023.46
2019-01-02T03:59:49.833Z,1023.45
2019-01-02T04:00:24.938Z,1023.41
2019-01-02T04:01:00.466Z,1023.42
2019-01-02T04:01:35.770Z,1023.49
2019-01-02T04:02:11.689Z,1023.48
2019-01-02T04:02:46.970Z,1023.50
2019-01-02T04:03:22.293Z,1023.48
2019-01-02T04:03:57.493Z,1023.46
2019-01-02T04:04:32.815Z,1023.49
2019-01-02T04:05:08.031Z,1023.47
2019-01-02T04:05:43.339Z,1023.45
2019-01-02T04:06:18.769Z,1023.48
2019-01-02T04:06:53.962Z,1023.44
2019-01-02T04:07:29.271Z,1023.45
2019-01-02T04:08:04.600Z,1023.49
2019-01-02T04:08:39.814Z,1023.45
2019-01-02T04:09:15.243Z,1023.48
2019-01-02T04:09:50.831Z,1023.41
2019-01-02T04:10:26.153Z,1023.44
2019-01-02T04:11:01.364Z,1023.43
2019-01-02T04:11:36.769Z,1023.44
2019-01-02T04:12:12.388Z,1023.44
2019-01-02T04:12:47.503Z,1023.40
2019-01-02T04:13:23.334Z,1023.41
2019-01-02T04:13:58.432Z,1023.40
2019-01-02T04:14:33.852Z,1023.42
2019-01-02T04:15:08.861Z,1023.43
2019-01-02T04:15:44.411Z,1023.37
2019-01-02T04:16:19.426Z,1023.42
2019-01-02T04:16:54.711Z,1023.39
2019-01-02T04:17:29.959Z,1023.40
2019-01-02T04:18:05.434Z,1023.38
2019-01-02T04:18:40.948Z,1023.41
2019-01-02T04:19:16.351Z,1023.41
2019-01-02T04:19:51.852Z,1023.45
2019-01-02T04:20:27.273Z,1023.46
2019-01-02T04:21:02.586Z,1023.43
2019-01-02T04:21:37.791Z,1023.41
2019-01-02T04:22:13.276Z,1023.47
2019-01-02T04:22:48.604Z,1023.44
2019-01-02T04:23:23.734Z,1023.40
2019-01-02T04:23:59.121Z,1023.41
2019-01-02T04:24:34.219Z,1023.38
2019-01-02T04:25:09.411Z,1023.43
2019-01-02T04:25:44.654Z,1023.31
2019-01-02T04:26:20.085Z,1023.41
2019-01-02T04:26:55.355Z,1023.44
2019-01-02T04:27:30.649Z,1023.46
2019-01-02T04:28:06.144Z,1023.43
2019-01-02T04:28:41.874Z,1023.42
2019-01-02T04:29:17.381Z,1023.39
2019-01-02T04:29:52.867Z,1023.44
2019-01-02T04:30:28.593Z,1023.36
2019-01-02T04:31:03.882Z,1023.48
2019-01-02T04:31:39.493Z,1023.46
2019-01-02T04:32:15.112Z,1023.41
2019-01-02T04:32:50.307Z,1023.46
2019-01-02T04:33:25.519Z,1023.42
2019-01-02T04:34:00.806Z,1023.45
2019-01-02T04:34:36.313Z,1023.42
2019-01-02T04:35:11.813Z,1023.47
2019-01-02T04:35:47.252Z,1023.47
2019-01-02T04:36:22.450Z,1023.41
2019-01-02T04:36:57.843Z,1023.45
2019-01-02T04:37:33.250Z,1023.40
2019-01-02T04:38:08.643Z,1023.47
2019-01-02T04:38:43.852Z,1023.40
2019-01-02T04:39:19.169Z,1023.52
2019-01-02T04:39:54.377Z,1023.41
2019-01-02T04:40:29.600Z,1023.45
2019-01-02T04:41:05.269Z,1023.43
2019-01-02T04:41:40.669Z,1023.46
2019-01-02T04:42:15.693Z,1023.32
2019-01-02T04:42:50.885Z,1023.43
2019-01-02T04:43:26.295Z,1023.48
2019-01-02T04:44:01.474Z,1023.44
2019-01-02T04:44:36.891Z,1023.43
2019-01-02T04:45:12.303Z,1023.44
2019-01-02T04:45:47.668Z,1023.40
2019-01-02T04:46:23.087Z,1023.46
2019-01-02T04:46:58.177Z,1023.47
2019-01-02T04:47:33.341Z,1023.44
2019-01-02T04:48:08.818Z,1023.43
2019-01-02T04:48:44.073Z,1023.42
2019-01-02T04:49:19.399Z,1023.48
2019-01-02T04:49:54.588Z,1023.41
2019-01-02T04:50:29.936Z,1023.40
2019-01-02T04:51:05.216Z,1023.46
2019-01-02T04:51:41.044Z,1023.45
2019-01-02T04:52:16.581Z,1023.47
2019-01-02T04:52:51.877Z,1023.38
2019-01-02T04:53:27.207Z,1023.45
2019-01-02T04:54:02.587Z,1023.50
2019-01-02T04:54:38.003Z,1023.52
2019-01-02T04:55:13.328Z,1023.47
2019-01-02T04:55:48.557Z,1023.43
2019-01-02T04:56:23.879Z,1023.46
2019-01-02T04:56:59.290Z,1023.37
2019-01-02T04:57:34.697Z,1023.49
2019-01-02T04:58:10.078Z,1023.49
2019-01-02T04:58:45.464Z,1023.47
2019-01-02T04:59:20.785Z,1023.54
2019-01-02T04:59:56.175Z,1023.50
2019-01-02T05:00:31.839Z,1023.47
2019-01-02T05:01:07.114Z,1023.55
2019-01-02T05:01:42.546Z,1023.53
2019-01-02T05:02:17.752Z,1023.56
2019-01-02T05:02:53.040Z,1023.55
2019-01-02T05:03:28.541Z,1023.44
2019-01-02T05:04:03.858Z,1023.55
2019-01-02T05:04:38.985Z,1023.54
2019-01-02T05:05:14.516Z,1023.53
2019-01-02T05:05:49.843Z,1023.53
2019-01-02T05:06:25.085Z,1023.58
2019-01-02T05:07:00.164Z,1023.58
2019-01-02T05:07:35.691Z,1023.56
2019-01-02T05:08:11.069Z,1023.54
2019-01-02T05:08:46.700Z,1023.52
2019-01-02T05:09:22.094Z,1023.57
2019-01-02T05:09:57.454Z,1023.55
2019-01-02T05:10:33.168Z,1023.59
2019-01-02T05:11:08.560Z,1023.58
2019-01-02T05:11:43.765Z,1023.56
2019-01-02T05:12:18.971Z,1023.62
2019-01-02T05:12:54.164Z,1023.62
2019-01-02T05:13:29.541Z,1023.61
2019-01-02T05:14:04.766Z,1023.65
2019-01-02T05:14:40.473Z,1023.63
2019-01-02T05:15:15.805Z,1023.61
2019-01-02T05:15:51.113Z,1023.69
2019-01-02T05:16:26.495Z,1023.69
2019-01-02T05:17:02.205Z,1023.73
2019-01-02T05:17:37.702Z,1023.72
2019-01-02T05:18:13.079Z,1023.75
2019-01-02T05:18:48.680Z,1023.76
2019-01-02T05:19:23.981Z,1023.70
2019-01-02T05:19:59.424Z,1023.71
2019-01-02T05:20:34.614Z,1023.75
2019-01-02T05:21:10.117Z,1023.77
2019-01-02T05:21:45.278Z,1023.75
2019-01-02T05:22:20.586Z,1023.87
2019-01-02T05:22:56.188Z,1023.84
2019-01-02T05:23:31.507Z,1023.84
2019-01-02T05:24:06.685Z,1023.90
2019-01-02T05:24:42.105Z,1023.87
2019-01-02T05:25:17.599Z,1023.93
2019-01-02T05:25:53.015Z,1023.89
2019-01-02T05:26:28.503Z,1023.93
2019-01-02T05:27:04.029Z,1023.89
2019-01-02T05:27:39.238Z,1023.90
2019-01-02T05:28:14.548Z,1023.94
2019-01-02T05:28:49.931Z,1023.89
2019-01-02T05:29:25.173Z,1023.89
2019-01-02T05:30:00.685Z,1023.93
2019-01-02T05:30:36.027Z,1023.86
2019-01-02T05:31:11.417Z,1023.90
2019-01-02T05:31:46.748Z,1023.98
2019-01-02T05:32:22.235Z,1023.84
2019-01-02T05:32:57.662Z,1023.91
2019-01-02T05:33:32.938Z,1023.98
2019-01-02T05:34:08.175Z,1023.97
2019-01-02T05:34:43.586Z,1023.95
2019-01-02T05:35:18.810Z,1023.95
2019-01-02T05:35:54.111Z,1024.04
2019-01-02T05:36:29.638Z,1024.04
2019-01-02T05:37:04.922Z,1024.03
2019-01-02T05:37:40.537Z,1024.06
2019-01-02T05:38:16.039Z,1024.06
2019-01-02T05:38:51.371Z,1024.02
2019-01-02T05:39:26.569Z,1024.04
2019-01-02T05:40:02.096Z,1024.09
2019-01-02T05:40:37.778Z,1024.06
2019-01-02T05:41:13.212Z,1024.06
2019-01-02T05:41:48.485Z,1023.94
2019-01-02T05:42:23.914Z,1024.03
2019-01-02T05:42:58.901Z,1023.99
2019-01-02T05:43:34.122Z,1024.08
2019-01-02T05:44:09.515Z,1024.06
2019-01-02T05:44:44.880Z,1024.09
2019-01-02T05:45:20.481Z,1024.08
2019-01-02T05:45:55.693Z,1024.07
2019-01-02T05:46:30.985Z,1024.01
2019-01-02T05:47:06.201Z,1024.10
2019-01-02T05:47:41.511Z,1024.13
2019-01-02T05:48:16.827Z,1024.05
2019-01-02T05:48:52.320Z,1024.06
2019-01-02T05:49:27.760Z,1024.16
2019-01-02T05:50:03.145Z,1024.17
2019-01-02T05:50:38.568Z,1024.18
2019-01-02T05:51:13.854Z,1024.11
2019-01-02T05:51:49.309Z,1024.14
2019-01-02T05:52:24.800Z,1024.13
2019-01-02T05:53:00.119Z,1024.17
2019-01-02T05:53:35.510Z,1024.17
2019-01-02T05:54:10.747Z,1024.18
2019-01-02T05:54:45.880Z,1024.24
2019-01-02T05:55:21.311Z,1024.19
2019-01-02T05:55:56.802Z,1024.16
2019-01-02T05:56:32.359Z,1024.18
2019-01-02T05:57:07.723Z,1024.18
2019-01-02T05:57:43.137Z,1024.17
2019-01-02T05:58:18.308Z,1024.19
2019-01-02T05:58:53.545Z,1024.25
2019-01-02T05:59:28.750Z,1024.19
2019-01-02T06:00:04.228Z,1024.22
2019-01-02T06:00:39.899Z,1024.24
2019-01-02T06:01:14.750Z,1024.25
2019-01-02T06:01:49.835Z,1024.24
2019-01-02T06:02:25.340Z,1024.27
2019-01-02T06:03:00.441Z,1024.32
2019-01-02T06:03:35.861Z,1024.31
2019-01-02T06:04:11.253Z,1024.25
2019-01-02T06:04:47.093Z,1024.27
2019-01-02T06:05:22.480Z,1024.24
2019-01-02T06:05:57.893Z,1024.26
2019-01-02T06:06:32.865Z,1024.22
2019-01-02T06:07:08.376Z,1024.24
2019-01-02T06:07:43.772Z,1024.22
2019-01-02T06:08:19.389Z,1024.24
2019-01-02T06:08:54.578Z,1024.28
2019-01-02T06:09:30.122Z,1024.32
2019-01-02T06:10:05.312Z,1024.25
2019-01-02T06:10:40.748Z,1024.36
2019-01-02T06:11:16.337Z,1024.30
2019-01-02T06:11:51.872Z,1024.32
2019-01-02T06:12:27.255Z,1024.34
2019-01-02T06:13:02.772Z,1024.35
2019-01-02T06:13:38.154Z,1024.27
2019-01-02T06:14:13.555Z,1024.30
2019-01-02T06:14:48.790Z,1024.37
2019-01-02T06:15:23.904Z,1024.36
2019-01-02T06:15:59.303Z,1024.37
2019-01-02T06:16:34.839Z,1024.42
2019-01-02T06:17:10.812Z,1024.40
2019-01-02T06:17:46.438Z,1024.37
2019-01-02T06:18:21.915Z,1024.43
2019-01-02T06:18:57.024Z,1024.41
2019-01-02T06:19:32.348Z,1024.40
2019-01-02T06:20:07.862Z,1024.39
2019-01-02T06:20:43.248Z,1024.47
2019-01-02T06:21:18.675Z,1024.42
2019-01-02T06:21:53.954Z,1024.42
2019-01-02T06:22:29.394Z,1024.38
2019-01-02T06:23:04.601Z,1024.37
2019-01-02T06:23:39.814Z,1024.38
2019-01-02T06:24:15.297Z,1024.41
2019-01-02T06:24:50.561Z,1024.36
2019-01-02T06:25:25.940Z,1024.38
2019-01-02T06:26:01.259Z,1024.41
2019-01-02T06:26:36.469Z,1024.46
2019-01-02T06:27:11.689Z,1024.48
2019-01-02T06:27:47.064Z,1024.44
2019-01-02T06:28:22.347Z,1024.46
2019-01-02T06:28:57.843Z,1024.48
2019-01-02T06:29:33.177Z,1024.49
2019-01-02T06:30:08.560Z,1024.50
2019-01-02T06:30:43.764Z,1024.45
2019-01-02T06:31:18.955Z,1024.48
2019-01-02T06:31:54.752Z,1024.50
2019-01-02T06:32:30.097Z,1024.49
2019-01-02T06:33:05.313Z,1024.53
2019-01-02T06:33:40.509Z,1024.48
2019-01-02T06:34:15.726Z,1024.53
2019-01-02T06:34:51.129Z,1024.51
2019-01-02T06:35:26.444Z,1024.55
2019-01-02T06:36:02.029Z,1024.53
2019-01-02T06:36:37.565Z,1024.60
2019-01-02T06:37:12.860Z,1024.61
2019-01-02T06:37:48.080Z,1024.54
2019-01-02T06:38:23.569Z,1024.57
2019-01-02T06:38:58.782Z,1024.56
2019-01-02T06:39:34.022Z,1024.57
2019-01-02T06:40:09.546Z,1024.56
2019-01-02T06:40:44.989Z,1024.60
2019-01-02T06:41:20.763Z,1024.61
2019-01-02T06:41:56.156Z,1024.58
2019-01-02T06:42:31.373Z,1024.55
2019-01-02T06:43:06.815Z,1024.64
2019-01-02T06:43:41.986Z,1024.64
2019-01-02T06:44:17.267Z,1024.65
2019-01-02T06:44:52.924Z,1024.57
2019-01-02T06:45:28.112Z,1024.58
2019-01-02T06:46:03.338Z,1024.55
2019-01-02T06:46:38.741Z,1024.56
2019-01-02T06:47:13.974Z,1024.55
2019-01-02T06:47:49.181Z,1024.59
2019-01-02T06:48:24.774Z,1024.54
2019-01-02T06:49:00.208Z,1024.53
2019-01-02T06:49:35.829Z,1024.56
2019-01-02T06:50:11.148Z,1024.55
2019-01-02T06:50:46.367Z,1024.53
2019-01-02T06:51:21.762Z,1024.47
2019-01-02T06:51:57.290Z,1024.52
2019-01-02T06:52:32.697Z,1024.53
2019-01-02T06:53:07.976Z,1024.57
2019-01-02T06:53:43.626Z,1024.58
2019-01-02T06:54:18.848Z,1024.63
2019-01-02T06:54:54.273Z,1024.66
2019-01-02T06:55:29.739Z,1024.57
2019-01-02T06:56:05.026Z,1024.60
2019-01-02T06:56:40.451Z,1024.68
2019-01-02T06:57:15.738Z,1024.65
2019-01-02T06:57:50.969Z,1024.68
2019-01-02T06:58:26.200Z,1024.71
2019-01-02T06:59:01.549Z,1024.65
2019-01-02T06:59:37.050Z,1024.66
2019-01-02T07:00:12.472Z,1024.70
2019-01-02T07:00:48.066Z,1024.66
2019-01-02T07:01:23.682Z,1024.70
2019-01-02T07:01:59.078Z,1024.77
2019-01-02T07:02:34.407Z,1024.74
2019-01-02T07:03:09.790Z,1024.76
2019-01-02T07:03:45.032Z,1024.79
2019-01-02T07:04:20.213Z,1024.78
2019-01-02T07:04:55.587Z,1024.77
2019-01-02T07:05:30.779Z,1024.83
2019-01-02T07:06:06.052Z,1024.85
2019-01-02T07:06:41.440Z,1024.85
2019-01-02T07:07:16.696Z,1024.86
2019-01-02T07:07:52.064Z,1024.84